KMHT/MHT METAR and TAF weather

Enter ICAO airport designator
Station Type Date Time Source
KMHT METAR 2020/07/10 17:53 UTC NOAA

KMHT 101753Z 10011KT 10SM SCT037 BKN250 31/21 A2998 RMK AO2 SLP160 T03110206 10317 20250 58007


Station Type Date Time Source
KMHT Decoded METAR 2020/07/10 17:53 UTC NOAA

MANCHESTER AIRPORT, NH, United States (KMHT) 42-56N 071-26W 81M
Jul 10, 2020 - 01:53 PM EDT / 2020.07.10 1753 UTC
Wind: from the E (100 degrees) at 13 MPH (11 KT):0
Visibility: 10 mile(s):0
Sky conditions: mostly cloudy
Temperature: 88.0 F (31.1 C)
Dew Point: 69.1 F (20.6 C)
Relative Humidity: 53%
Pressure (altimeter): 29.98 in. Hg (1015 hPa)
Pressure tendency: 0.02 inches (0.7 hPa) lower than three hours ago
ob: KMHT 101753Z 10011KT 10SM SCT037 BKN250 31/21 A2998 RMK AO2 SLP160 T03110206 10317 20250 58007
cycle: 18

Station Type Date Time Source
KMHT TAF 2020/07/10 18:36 UTC NOAA

TAF KMHT 101733Z 1018/1118 16010KT P6SM SCT035 BKN200 BKN250
FM102300 10010KT 4SM -RA OVC015
FM110300 10013G21KT 4SM -RA BR OVC007
FM111200 15010KT 1 1/2SM -DZ BR OVC007
FM111500 18010KT P6SM OVC015

Example: see airport list